Time;durP1;ratioP1;P1;durP2;ratioP2;P2;SDS_P1;SDS_P2;PMS_P1;PMS_P2;Temp;Humidity;BMP_temperature;BMP_pressure;BME280_temperature;BME280_humidity;BME280_pressure;Samples;Min_cycle;Max_cycle;Signal;HPM_P1;HPM_P2
2023/01/27 00:01:52;;;;;;;4.68;4.20;;;15.50;42.20;;;;;;5055508;28;20190;-58
2023/01/27 00:04:19;;;;;;;4.80;4.40;;;15.50;42.10;;;;;;5073334;28;20252;-58
2023/01/27 00:06:47;;;;;;;5.95;4.97;;;15.40;42.00;;;;;;5091271;22;20235;-63
2023/01/27 00:09:16;;;;;;;5.15;4.65;;;15.40;42.10;;;;;;5054034;28;20195;-62
2023/01/27 00:14:28;;;;;;;4.50;4.10;;;15.40;42.10;;;;;;5036042;28;20312;-63
2023/01/27 00:16:57;;;;;;;5.18;4.68;;;15.40;42.10;;;;;;5053982;28;20275;-62
2023/01/27 00:19:25;;;;;;;5.18;4.65;;;15.30;42.60;;;;;;5053526;28;20191;-64
2023/01/27 00:24:37;;;;;;;5.03;4.53;;;15.40;42.10;;;;;;5053835;28;20628;-64
2023/01/27 00:27:07;;;;;;;4.60;4.20;;;15.30;42.00;;;;;;5053861;28;20194;-63
2023/01/27 00:29:35;;;;;;;6.15;5.32;;;15.30;42.00;;;;;;5035533;28;20227;-63
2023/01/27 00:34:49;;;;;;;4.88;4.38;;;15.20;42.00;;;;;;5035453;28;20280;-63
2023/01/27 00:37:17;;;;;;;4.90;4.32;;;15.20;42.00;;;;;;5053338;28;20669;-64
2023/01/27 00:39:44;;;;;;;4.38;3.97;;;15.20;42.00;;;;;;5053645;28;20198;-63
2023/01/27 00:42:11;;;;;;;5.07;4.63;;;15.20;42.00;;;;;;5053316;28;20196;-64
2023/01/27 00:45:47;;;;;;;5.28;4.43;;;15.20;42.10;;;;;;5053387;28;20597;-64
2023/01/27 00:47:27;;;;;;;5.70;4.65;;;15.10;42.00;;;;;;5035250;28;20208;-63
2023/01/27 00:49:54;;;;;;;5.32;4.82;;;15.20;42.10;;;;;;5036546;28;20206;-64
2023/01/27 00:52:22;;;;;;;5.32;4.82;;;15.10;42.10;;;;;;5039425;28;20222;-63
2023/01/27 00:54:49;;;;;;;5.10;4.60;;;15.10;42.10;;;;;;5057183;28;20265;-63
2023/01/27 00:57:16;;;;;;;4.90;4.40;;;15.10;42.10;;;;;;5039313;28;20195;-64
2023/01/27 00:59:44;;;;;;;5.20;4.70;;;15.10;42.70;;;;;;5039527;28;20213;-63
2023/01/27 01:02:11;;;;;;;5.57;4.97;;;15.10;42.20;;;;;;5057259;28;20194;-63
2023/01/27 01:04:40;;;;;;;5.00;4.50;;;15.10;42.20;;;;;;5056998;28;20207;-63
2023/01/27 01:07:07;;;;;;;5.28;4.78;;;15.00;42.20;;;;;;5056960;28;20298;-64
2023/01/27 01:09:35;;;;;;;6.00;5.40;;;15.10;42.20;;;;;;5057335;28;20195;-64
2023/01/27 01:12:04;;;;;;;5.30;4.80;;;15.00;42.20;;;;;;5039158;28;20195;-63
2023/01/27 01:14:31;;;;;;;5.82;5.22;;;15.00;42.00;;;;;;5056763;28;20212;-64
2023/01/27 01:16:59;;;;;;;5.35;4.85;;;15.00;42.00;;;;;;5056849;28;20282;-63
2023/01/27 01:19:26;;;;;;;5.65;5.07;;;15.00;42.00;;;;;;5039149;28;20201;-63
2023/01/27 01:21:54;;;;;;;5.78;5.18;;;15.00;42.00;;;;;;5038739;28;20195;-63
2023/01/27 01:24:21;;;;;;;5.50;5.00;;;15.00;42.00;;;;;;5038516;28;20221;-63
2023/01/27 01:26:48;;;;;;;5.70;5.10;;;15.00;42.30;;;;;;5038564;28;20203;-63
2023/01/27 01:29:16;;;;;;;5.78;5.00;;;15.00;42.20;;;;;;5038631;28;20227;-63
2023/01/27 01:31:44;;;;;;;5.85;5.00;;;14.90;42.00;;;;;;5056753;28;20191;-63
2023/01/27 01:34:11;;;;;;;5.30;4.88;;;14.90;41.90;;;;;;5038778;28;20227;-63
2023/01/27 01:36:38;;;;;;;5.65;5.15;;;14.90;42.10;;;;;;5038730;28;20199;-64
2023/01/27 01:39:07;;;;;;;6.07;5.15;;;14.90;42.20;;;;;;5038631;28;20198;-63
2023/01/27 01:41:34;;;;;;;5.22;4.72;;;14.90;42.20;;;;;;5038684;28;20191;-63
2023/01/27 01:44:20;;;;;;;4.97;4.53;;;14.90;42.30;;;;;;5038252;28;20219;-60
2023/01/27 01:46:47;;;;;;;6.28;5.15;;;14.90;42.30;;;;;;5056429;28;20176;-63
2023/01/27 01:49:14;;;;;;;5.20;4.70;;;14.80;42.30;;;;;;5038180;28;20294;-63
2023/01/27 01:51:43;;;;;;;6.13;5.07;;;14.90;42.30;;;;;;5038342;28;20657;-63
2023/01/27 01:54:14;;;;;;;5.43;4.93;;;14.80;42.40;;;;;;5038004;28;20223;-63
2023/01/27 01:56:42;;;;;;;5.57;5.07;;;14.80;42.40;;;;;;5038247;28;20684;-63
2023/01/27 01:59:11;;;;;;;5.95;5.35;;;14.80;42.40;;;;;;5038177;28;20556;-63
2023/01/27 02:01:38;;;;;;;5.80;5.10;;;14.80;42.40;;;;;;5056384;28;20188;-63
2023/01/27 02:04:07;;;;;;;5.45;4.95;;;14.80;42.50;;;;;;5038148;28;20269;-63
2023/01/27 02:06:39;;;;;;;5.63;5.13;;;14.80;42.50;;;;;;5055871;28;20200;-63
2023/01/27 02:09:06;;;;;;;6.43;5.38;;;14.80;42.40;;;;;;5038092;28;20673;-63
2023/01/27 02:11:34;;;;;;;5.50;4.82;;;14.70;42.30;;;;;;5038187;28;20227;-63
2023/01/27 02:19:21;;;;;;;5.22;4.72;;;14.70;42.50;;;;;;4975847;28;20280;-70
2023/01/27 02:21:49;;;;;;;5.20;4.70;;;14.70;42.50;;;;;;4983767;28;20645;-62
2023/01/27 02:24:16;;;;;;;5.00;4.57;;;14.70;42.50;;;;;;4976333;28;20588;-62
2023/01/27 02:26:45;;;;;;;4.90;4.40;;;14.70;42.40;;;;;;4977068;28;20193;-61
2023/01/27 02:29:13;;;;;;;5.38;4.28;;;14.70;42.30;;;;;;4975540;28;20264;-61
2023/01/27 02:31:41;;;;;;;5.28;4.78;;;14.70;42.40;;;;;;4975587;28;20626;-61
2023/01/27 02:34:10;;;;;;;5.07;4.57;;;14.60;42.20;;;;;;4975295;28;20708;-61
2023/01/27 02:36:39;;;;;;;5.63;4.47;;;14.60;42.30;;;;;;4975516;28;20554;-61
2023/01/27 02:39:06;;;;;;;5.07;4.32;;;14.60;42.40;;;;;;4975487;28;20360;-61
2023/01/27 02:41:35;;;;;;;5.80;4.95;;;14.60;43.00;;;;;;4975415;28;20206;-61
2023/01/27 02:44:03;;;;;;;4.80;4.30;;;14.60;42.40;;;;;;4975211;28;20214;-61
2023/01/27 02:46:30;;;;;;;4.90;4.40;;;14.60;42.40;;;;;;4975141;28;20266;-62
2023/01/27 02:48:57;;;;;;;4.50;4.07;;;14.60;42.50;;;;;;4975316;28;20201;-61
2023/01/27 02:51:25;;;;;;;4.95;4.45;;;14.60;42.60;;;;;;4975235;28;20229;-61
2023/01/27 02:53:52;;;;;;;4.28;3.75;;;14.60;42.50;;;;;;4974870;28;20329;-62
2023/01/27 02:56:20;;;;;;;5.07;4.40;;;14.60;42.50;;;;;;4975012;28;20202;-61
2023/01/27 02:58:47;;;;;;;5.03;4.53;;;14.60;42.50;;;;;;4976407;28;20217;-61
2023/01/27 03:01:19;;;;;;;4.97;4.45;;;14.50;42.40;;;;;;4975558;28;20194;-61
2023/01/27 03:03:46;;;;;;;5.03;4.57;;;14.50;42.50;;;;;;4974866;28;20249;-61
2023/01/27 03:06:17;;;;;;;4.90;4.40;;;14.50;42.50;;;;;;4975722;28;20558;-61
2023/01/27 03:08:44;;;;;;;4.50;4.10;;;14.50;42.50;;;;;;4976108;28;20201;-61
2023/01/27 03:12:18;;;;;;;5.25;4.38;;;14.50;42.50;;;;;;4974722;28;20226;-62
2023/01/27 03:14:03;;;;;;;4.97;4.47;;;14.50;42.60;;;;;;4975601;28;20587;-62
2023/01/27 03:19:17;;;;;;;5.20;4.45;;;14.50;42.30;;;;;;4975265;28;20218;-62
2023/01/27 03:21:44;;;;;;;4.63;4.20;;;14.50;42.00;;;;;;4976179;28;20198;-61
2023/01/27 03:24:12;;;;;;;5.10;4.30;;;14.50;42.40;;;;;;4975314;28;20217;-61
2023/01/27 03:26:39;;;;;;;5.30;4.57;;;14.50;42.20;;;;;;4974921;28;20201;-62
2023/01/27 03:31:54;;;;;;;5.25;4.57;;;14.40;42.10;;;;;;4976067;28;20270;-62
2023/01/27 03:34:21;;;;;;;4.38;3.97;;;14.50;42.10;;;;;;4974184;28;20222;-62
2023/01/27 03:47:57;;;;;;;5.47;4.97;;;14.40;42.40;;;;;;4976224;28;20257;-61
2023/01/27 03:50:36;;;;;;;5.22;4.63;;;14.40;42.30;;;;;;4974849;28;20673;-61
2023/01/27 03:53:03;;;;;;;4.75;4.35;;;14.40;42.20;;;;;;4976239;28;20214;-61
2023/01/27 03:55:30;;;;;;;5.03;4.53;;;14.40;42.40;;;;;;4976069;28;20228;-62
2023/01/27 03:58:04;;;;;;;5.25;4.35;;;14.40;42.40;;;;;;4976191;28;20196;-61
2023/01/27 04:00:32;;;;;;;4.82;4.28;;;14.40;42.50;;;;;;4974627;28;20224;-61
2023/01/27 04:08:30;;;;;;;5.10;4.60;;;14.30;42.40;;;;;;4975483;28;20185;-61
2023/01/27 04:13:43;;;;;;;5.22;4.75;;;14.30;42.50;;;;;;4975205;28;20221;-62
2023/01/27 04:16:10;;;;;;;5.35;4.85;;;14.30;42.80;;;;;;4974113;28;20202;-61
2023/01/27 04:18:39;;;;;;;5.47;4.97;;;14.20;43.50;;;;;;4975080;28;20595;-61
2023/01/27 04:21:08;;;;;;;5.82;5.22;;;14.20;42.90;;;;;;4974065;28;20198;-61
2023/01/27 04:23:35;;;;;;;5.38;4.88;;;14.30;43.00;;;;;;4974742;28;20213;-62
2023/01/27 04:26:02;;;;;;;4.85;4.38;;;14.30;43.10;;;;;;4973311;28;20566;-62
2023/01/27 04:28:30;;;;;;;4.88;4.43;;;14.30;43.10;;;;;;4975275;28;20198;-61
2023/01/27 04:30:59;;;;;;;5.68;4.82;;;14.30;43.10;;;;;;4973564;28;20286;-62
2023/01/27 04:33:26;;;;;;;4.82;4.30;;;14.30;43.10;;;;;;4973416;28;20218;-62
2023/01/27 04:35:55;;;;;;;5.13;4.63;;;14.40;43.10;;;;;;4974825;28;20664;-61
2023/01/27 04:38:22;;;;;;;4.55;4.13;;;14.40;42.90;;;;;;4974919;28;20620;-61
2023/01/27 04:40:49;;;;;;;5.60;4.95;;;14.40;42.90;;;;;;4974847;28;20198;-61
2023/01/27 04:43:16;;;;;;;4.85;4.45;;;14.50;42.70;;;;;;4973330;28;20284;-62
2023/01/27 04:45:47;;;;;;;4.80;4.32;;;14.50;42.70;;;;;;4975063;28;20286;-61
2023/01/27 04:48:14;;;;;;;4.85;4.25;;;14.50;42.70;;;;;;4974489;28;20205;-62
2023/01/27 04:50:41;;;;;;;5.28;4.78;;;14.50;42.50;;;;;;4973380;28;20285;-61
2023/01/27 04:53:09;;;;;;;5.60;5.00;;;14.60;42.60;;;;;;4973487;28;20300;-62
2023/01/27 04:55:36;;;;;;;5.00;4.55;;;14.60;42.50;;;;;;4974599;28;20214;-61
2023/01/27 04:58:04;;;;;;;5.40;4.85;;;14.60;42.60;;;;;;4974762;28;20194;-61
2023/01/27 05:00:31;;;;;;;5.43;4.93;;;14.60;42.50;;;;;;4974974;28;20222;-61
2023/01/27 05:02:59;;;;;;;5.97;5.22;;;14.60;42.50;;;;;;4974590;28;20245;-62
2023/01/27 05:05:26;;;;;;;4.97;4.47;;;14.60;43.10;;;;;;4974304;28;20193;-61
2023/01/27 05:07:53;;;;;;;5.05;4.55;;;14.60;42.50;;;;;;4974636;28;20556;-62
2023/01/27 05:10:22;;;;;;;6.00;5.15;;;14.60;42.30;;;;;;4972891;28;20202;-62
2023/01/27 05:12:49;;;;;;;6.22;5.43;;;14.60;42.20;;;;;;4972879;28;20305;-62
2023/01/27 05:15:17;;;;;;;5.38;4.88;;;14.60;42.10;;;;;;4974414;28;20210;-63
2023/01/27 05:17:44;;;;;;;5.10;4.70;;;14.60;42.10;;;;;;4974672;28;20584;-62
2023/01/27 05:20:12;;;;;;;5.25;4.75;;;14.70;42.00;;;;;;4974346;28;20202;-62
2023/01/27 05:22:42;;;;;;;5.63;5.03;;;14.70;42.00;;;;;;4972938;28;20206;-63
2023/01/27 05:25:10;;;;;;;6.30;5.70;;;14.70;42.00;;;;;;4972879;28;20660;-63
2023/01/27 05:27:38;;;;;;;6.00;5.43;;;14.70;41.90;;;;;;4974359;28;20207;-63
2023/01/27 05:30:07;;;;;;;5.15;4.75;;;14.70;41.70;;;;;;4972884;28;20226;-63
2023/01/27 05:32:33;;;;;;;6.28;5.57;;;14.80;41.90;;;;;;4973045;28;20261;-63
2023/01/27 05:35:01;;;;;;;5.97;5.38;;;14.80;41.80;;;;;;4974163;28;20214;-62
2023/01/27 05:37:28;;;;;;;5.40;4.90;;;14.80;41.70;;;;;;4977761;28;20186;-63
2023/01/27 05:39:55;;;;;;;5.85;5.25;;;14.80;41.60;;;;;;4978828;28;20245;-64
2023/01/27 05:42:22;;;;;;;5.45;4.88;;;14.80;41.60;;;;;;4976852;28;20286;-63
2023/01/27 05:44:51;;;;;;;5.82;5.28;;;14.80;41.70;;;;;;4977772;28;20206;-63
2023/01/27 05:47:18;;;;;;;5.60;5.05;;;14.90;41.80;;;;;;4977918;28;20190;-63
2023/01/27 05:49:45;;;;;;;5.70;5.20;;;14.80;41.70;;;;;;4976435;28;20202;-63
2023/01/27 05:52:13;;;;;;;5.75;4.97;;;14.90;41.90;;;;;;4977635;28;20669;-63
2023/01/27 05:54:40;;;;;;;5.40;4.90;;;14.80;41.90;;;;;;4977564;28;20214;-63
2023/01/27 05:57:07;;;;;;;5.40;4.90;;;14.80;41.80;;;;;;4977433;28;20273;-63
2023/01/27 05:59:35;;;;;;;5.75;5.15;;;14.80;41.80;;;;;;4976233;28;20194;-63
2023/01/27 06:02:05;;;;;;;6.00;5.40;;;14.90;41.80;;;;;;4977406;28;20281;-63
2023/01/27 06:04:32;;;;;;;5.70;5.13;;;14.90;41.80;;;;;;4977571;28;20202;-63
2023/01/27 06:07:00;;;;;;;5.50;5.00;;;14.90;41.70;;;;;;4976082;28;20202;-63
2023/01/27 06:09:27;;;;;;;6.78;5.38;;;14.90;41.80;;;;;;4976155;28;20202;-63
2023/01/27 06:11:54;;;;;;;5.60;5.03;;;14.90;41.70;;;;;;4977136;28;20665;-63
2023/01/27 06:14:22;;;;;;;6.22;5.50;;;15.00;41.80;;;;;;4975725;28;20225;-63
2023/01/27 06:16:49;;;;;;;6.55;5.60;;;15.00;41.70;;;;;;4975530;28;20206;-63
2023/01/27 06:19:18;;;;;;;6.15;5.55;;;15.00;41.80;;;;;;4977043;28;20194;-63
2023/01/27 06:21:45;;;;;;;6.05;5.45;;;15.00;41.60;;;;;;4976928;28;20194;-63
2023/01/27 06:24:12;;;;;;;6.03;5.40;;;15.10;41.80;;;;;;4975311;28;20742;-64
2023/01/27 06:26:39;;;;;;;6.50;5.78;;;15.10;41.80;;;;;;4976648;28;20197;-64
2023/01/27 06:29:06;;;;;;;5.68;4.97;;;15.10;41.90;;;;;;4976752;28;20200;-63
2023/01/27 06:31:34;;;;;;;5.90;5.30;;;15.10;41.90;;;;;;4975474;28;20702;-64
2023/01/27 06:34:02;;;;;;;5.60;5.10;;;15.10;41.90;;;;;;4975295;28;20716;-64
2023/01/27 06:36:30;;;;;;;6.75;6.00;;;15.10;41.90;;;;;;4976584;28;20198;-63
2023/01/27 06:38:58;;;;;;;6.57;5.97;;;15.10;41.90;;;;;;4975332;28;20657;-63
2023/01/27 06:41:25;;;;;;;6.07;5.47;;;15.10;41.90;;;;;;4975187;28;20673;-64
2023/01/27 06:43:51;;;;;;;6.40;5.80;;;15.10;42.00;;;;;;4976323;28;20704;-64
2023/01/27 06:46:19;;;;;;;5.93;5.35;;;15.10;41.90;;;;;;4975103;28;20292;-64
2023/01/27 06:48:46;;;;;;;6.75;5.40;;;15.20;42.20;;;;;;4974361;28;20285;-63
2023/01/27 06:51:13;;;;;;;5.60;5.10;;;15.20;42.20;;;;;;4975479;28;20198;-64
2023/01/27 06:53:41;;;;;;;6.10;5.45;;;15.20;42.00;;;;;;4975160;28;20222;-67
2023/01/27 06:56:09;;;;;;;5.68;5.15;;;15.20;42.00;;;;;;4975108;28;20607;-64
2023/01/27 06:58:36;;;;;;;6.68;5.25;;;15.20;42.00;;;;;;4976440;28;20232;-66
2023/01/27 07:01:05;;;;;;;7.75;5.35;;;15.20;42.00;;;;;;4975486;28;20198;-68
2023/01/27 07:03:32;;;;;;;6.30;5.00;;;15.20;42.00;;;;;;4975416;28;20738;-66
2023/01/27 07:05:59;;;;;;;5.57;4.90;;;15.20;42.50;;;;;;4977097;28;20202;-66
2023/01/27 07:08:29;;;;;;;5.93;5.32;;;15.20;42.00;;;;;;4976478;28;20239;-68
2023/01/27 07:10:58;;;;;;;5.40;4.90;;;15.20;42.00;;;;;;4975000;28;20747;-65
2023/01/27 07:13:25;;;;;;;5.82;5.30;;;15.20;42.00;;;;;;4975255;28;20222;-66
2023/01/27 07:15:56;;;;;;;5.18;4.68;;;15.20;42.00;;;;;;4976353;28;20306;-64
2023/01/27 07:18:23;;;;;;;6.57;5.22;;;15.20;42.00;;;;;;4976141;28;20253;-63
2023/01/27 07:20:50;;;;;;;5.93;4.97;;;15.30;42.00;;;;;;4976221;28;20677;-64
2023/01/27 07:23:17;;;;;;;5.88;5.28;;;15.30;42.00;;;;;;4975031;28;20218;-64
2023/01/27 07:25:44;;;;;;;6.10;5.50;;;15.20;42.00;;;;;;4976212;28;20190;-64
2023/01/27 07:28:13;;;;;;;5.22;4.72;;;15.20;41.80;;;;;;4976706;28;20699;-64
2023/01/27 07:30:42;;;;;;;5.65;5.15;;;15.30;41.90;;;;;;4975193;28;20202;-64
2023/01/27 07:33:12;;;;;;;6.03;5.40;;;15.30;41.60;;;;;;4976015;28;20210;-65
2023/01/27 07:35:41;;;;;;;6.18;4.82;;;15.30;41.60;;;;;;4976049;28;20234;-64
2023/01/27 07:38:08;;;;;;;6.28;5.68;;;15.30;42.40;;;;;;4975602;28;20225;-64
2023/01/27 07:40:35;;;;;;;6.45;5.82;;;15.30;41.50;;;;;;4975966;28;20194;-64
2023/01/27 07:43:04;;;;;;;5.30;4.78;;;15.30;41.30;;;;;;4974628;28;20228;-62
2023/01/27 07:45:35;;;;;;;5.82;5.15;;;15.30;41.50;;;;;;4976021;28;20261;-62
2023/01/27 07:48:02;;;;;;;5.65;5.13;;;15.40;41.20;;;;;;4976248;28;20249;-62
2023/01/27 07:50:30;;;;;;;5.70;5.10;;;15.40;41.20;;;;;;4976055;28;20221;-62
2023/01/27 07:52:59;;;;;;;5.28;4.78;;;15.40;41.20;;;;;;4975871;28;20198;-62
2023/01/27 07:55:27;;;;;;;6.88;5.80;;;15.40;41.40;;;;;;4974410;28;20277;-63
2023/01/27 07:57:53;;;;;;;5.90;5.30;;;15.40;41.20;;;;;;4975983;28;20194;-62
2023/01/27 08:00:21;;;;;;;6.45;5.15;;;15.40;41.20;;;;;;4974417;28;20206;-62
2023/01/27 08:02:52;;;;;;;5.93;5.10;;;15.40;41.10;;;;;;4974314;28;20581;-62
2023/01/27 08:05:19;;;;;;;5.55;4.90;;;15.50;41.00;;;;;;4974361;28;20301;-64
2023/01/27 08:07:47;;;;;;;5.40;4.85;;;15.50;41.10;;;;;;4975620;28;20198;-63
2023/01/27 08:10:14;;;;;;;5.32;4.82;;;15.50;41.00;;;;;;4975737;28;20198;-62
2023/01/27 08:12:41;;;;;;;5.45;4.95;;;15.50;40.80;;;;;;4974353;28;20202;-62
2023/01/27 08:15:09;;;;;;;5.50;4.72;;;15.50;41.00;;;;;;4974107;28;20273;-64
2023/01/27 08:17:37;;;;;;;5.57;4.95;;;15.50;40.80;;;;;;4975522;28;20277;-62
2023/01/27 08:20:07;;;;;;;4.93;4.43;;;15.50;40.90;;;;;;4973836;28;20206;-62
2023/01/27 08:22:34;;;;;;;5.03;4.53;;;15.50;40.70;;;;;;4975725;28;20569;-62
2023/01/27 08:25:01;;;;;;;5.88;4.82;;;15.60;40.70;;;;;;4975115;28;20297;-62
2023/01/27 08:27:29;;;;;;;5.13;4.63;;;15.60;40.70;;;;;;4973716;28;20194;-62
2023/01/27 08:29:56;;;;;;;4.57;4.18;;;15.60;40.50;;;;;;4973861;28;20198;-62
2023/01/27 08:32:23;;;;;;;5.10;4.50;;;15.60;40.60;;;;;;4975286;28;20197;-63
2023/01/27 08:34:51;;;;;;;4.93;4.40;;;15.60;40.50;;;;;;4973812;28;20301;-62
2023/01/27 08:37:20;;;;;;;4.75;4.22;;;15.60;40.70;;;;;;4975289;28;20202;-62
2023/01/27 08:39:46;;;;;;;5.03;4.53;;;15.50;40.70;;;;;;4975119;28;20618;-63
2023/01/27 08:42:13;;;;;;;4.90;4.50;;;15.50;40.70;;;;;;4975089;28;20196;-63
2023/01/27 08:44:41;;;;;;;6.18;4.93;;;15.50;40.70;;;;;;4973754;28;20767;-62
2023/01/27 08:47:08;;;;;;;5.50;5.00;;;15.40;40.70;;;;;;4975203;28;20197;-62
2023/01/27 08:49:35;;;;;;;5.63;5.13;;;15.40;40.70;;;;;;4975282;28;20237;-63
2023/01/27 08:52:02;;;;;;;6.15;4.72;;;15.40;40.50;;;;;;4973997;28;20198;-62
2023/01/27 08:54:31;;;;;;;4.60;4.20;;;15.40;40.50;;;;;;4973875;28;20240;-63
2023/01/27 08:56:58;;;;;;;4.95;4.47;;;15.40;40.90;;;;;;4975644;28;20264;-63
2023/01/27 08:59:26;;;;;;;4.38;3.97;;;15.40;40.90;;;;;;4980618;28;20182;-63
2023/01/27 09:01:53;;;;;;;4.68;4.25;;;15.40;41.20;;;;;;4999293;28;20186;-65
2023/01/27 09:04:21;;;;;;;4.80;4.40;;;15.30;40.90;;;;;;4978239;28;20242;-62
2023/01/27 09:06:49;;;;;;;5.82;4.40;;;15.40;40.90;;;;;;4974523;28;20198;-62
2023/01/27 09:09:16;;;;;;;5.07;4.57;;;15.40;40.90;;;;;;4975680;28;20190;-62
2023/01/27 09:11:46;;;;;;;4.53;4.13;;;15.40;40.60;;;;;;4977363;28;20233;-62
2023/01/27 09:14:13;;;;;;;5.70;4.45;;;15.40;41.00;;;;;;4978922;28;20746;-62
2023/01/27 09:16:41;;;;;;;4.82;4.43;;;15.40;41.00;;;;;;4978770;28;20206;-62
2023/01/27 09:19:08;;;;;;;4.75;4.30;;;15.40;40.90;;;;;;4978561;28;20687;-62
2023/01/27 09:21:35;;;;;;;4.75;4.35;;;15.40;40.70;;;;;;4978667;28;20225;-63
2023/01/27 09:24:02;;;;;;;5.15;4.57;;;15.40;41.40;;;;;;4978674;28;20257;-63
2023/01/27 09:26:29;;;;;;;6.15;4.78;;;15.40;40.70;;;;;;4978441;28;20193;-62
2023/01/27 09:28:58;;;;;;;6.00;5.40;;;15.40;40.30;;;;;;4978845;28;20201;-62
2023/01/27 09:31:25;;;;;;;5.80;5.20;;;15.40;40.60;;;;;;4977325;28;20202;-62
2023/01/27 09:33:52;;;;;;;5.53;4.88;;;15.50;40.50;;;;;;4978363;28;20218;-63
2023/01/27 09:36:20;;;;;;;5.95;5.18;;;15.50;40.70;;;;;;4978212;28;20226;-62
2023/01/27 09:38:51;;;;;;;6.65;5.55;;;15.50;40.30;;;;;;4976830;28;20618;-63
2023/01/27 09:41:36;;;;;;;7.25;5.60;;;15.60;40.50;;;;;;4976867;28;20300;-63
2023/01/27 09:44:31;;;;;;;5.80;5.20;;;15.60;40.40;;;;;;4976708;28;20233;-63
2023/01/27 09:47:06;;;;;;;5.63;4.88;;;15.60;40.40;;;;;;4977953;28;20193;-63
2023/01/27 09:49:40;;;;;;;6.57;5.05;;;15.60;40.40;;;;;;4976753;28;20200;-62
2023/01/27 09:52:21;;;;;;;5.22;4.72;;;15.60;40.50;;;;;;4977935;28;20193;-62
2023/01/27 09:54:54;;;;;;;4.45;4.03;;;15.70;40.50;;;;;;4976532;28;20771;-63
2023/01/27 09:57:25;;;;;;;5.60;4.70;;;15.60;40.80;;;;;;4978068;28;20277;-63
2023/01/27 10:00:01;;;;;;;5.70;5.20;;;15.70;40.30;;;;;;4976585;28;20603;-63
2023/01/27 10:02:40;;;;;;;5.82;5.05;;;15.70;40.10;;;;;;4977787;28;20185;-63
2023/01/27 10:05:17;;;;;;;5.45;4.95;;;15.70;40.10;;;;;;4978081;28;20711;-62
2023/01/27 10:08:12;;;;;;;6.05;5.38;;;15.70;40.20;;;;;;4976400;28;20205;-62
2023/01/27 10:10:48;;;;;;;5.53;4.90;;;15.70;40.10;;;;;;4972749;28;20623;-62
2023/01/27 10:13:23;;;;;;;5.13;4.53;;;15.70;40.30;;;;;;4975977;28;20250;-63
2023/01/27 10:15:57;;;;;;;5.45;4.80;;;15.70;40.10;;;;;;4977663;28;20198;-62
2023/01/27 10:18:31;;;;;;;4.65;4.25;;;15.80;40.10;;;;;;4976114;28;20185;-63
2023/01/27 10:21:02;;;;;;;5.40;4.53;;;15.80;40.00;;;;;;4976184;28;20244;-63
2023/01/27 10:23:34;;;;;;;6.70;4.78;;;15.80;40.00;;;;;;4974595;28;20221;-63
2023/01/27 10:26:07;;;;;;;5.13;4.63;;;15.80;39.80;;;;;;4977040;28;20502;-63
2023/01/27 10:28:34;;;;;;;5.38;4.53;;;15.80;39.70;;;;;;4977031;28;20177;-63
2023/01/27 10:31:05;;;;;;;5.80;4.97;;;15.80;39.70;;;;;;4977067;28;20273;-63
2023/01/27 10:33:40;;;;;;;5.85;5.10;;;15.80;39.50;;;;;;4975655;28;20229;-62
2023/01/27 10:36:11;;;;;;;5.68;4.90;;;15.80;39.70;;;;;;4977039;28;20237;-62
2023/01/27 10:38:39;;;;;;;5.18;4.32;;;15.80;39.90;;;;;;4976739;28;20198;-63
2023/01/27 10:41:14;;;;;;;5.00;4.50;;;15.80;40.00;;;;;;4977061;28;20194;-63
2023/01/27 10:43:47;;;;;;;4.63;4.20;;;15.70;40.00;;;;;;4975369;28;20232;-63
2023/01/27 10:46:19;;;;;;;5.75;4.65;;;15.70;40.00;;;;;;4976854;28;20202;-62
2023/01/27 10:48:48;;;;;;;5.00;4.40;;;15.70;40.20;;;;;;4975405;28;20194;-63
2023/01/27 10:51:18;;;;;;;5.10;4.35;;;15.60;40.00;;;;;;4975169;28;20646;-63
2023/01/27 10:53:51;;;;;;;4.38;3.97;;;15.60;40.10;;;;;;4976404;28;20206;-64
2023/01/27 10:56:23;;;;;;;4.35;3.95;;;15.70;40.10;;;;;;4974947;28;20237;-62
2023/01/27 10:58:54;;;;;;;5.55;5.00;;;15.70;40.00;;;;;;4976404;28;20181;-63
2023/01/27 11:01:27;;;;;;;4.72;4.32;;;15.70;40.10;;;;;;4975184;28;20190;-63
2023/01/27 11:03:56;;;;;;;5.65;4.47;;;15.80;39.80;;;;;;4975066;28;20233;-63
2023/01/27 11:06:24;;;;;;;4.80;4.35;;;15.80;40.10;;;;;;4976390;28;20751;-62
2023/01/27 11:08:52;;;;;;;4.70;4.25;;;15.80;39.90;;;;;;4974958;28;20198;-63
2023/01/27 11:14:11;;;;;;;5.45;4.95;;;15.80;39.70;;;;;;4974829;28;20224;-63
2023/01/27 11:16:40;;;;;;;5.10;4.53;;;15.90;39.50;;;;;;4975921;28;20241;-62
2023/01/27 11:19:14;;;;;;;5.18;4.68;;;15.90;39.70;;;;;;4974844;28;20670;-62
2023/01/27 11:21:41;;;;;;;5.05;4.25;;;15.90;39.50;;;;;;4974784;28;20194;-62
2023/01/27 11:24:15;;;;;;;5.15;4.60;;;15.90;39.70;;;;;;4974686;28;20586;-63
2023/01/27 11:26:43;;;;;;;4.55;4.15;;;16.00;40.00;;;;;;4974683;28;20189;-63
2023/01/27 11:29:18;;;;;;;4.72;4.32;;;15.90;39.70;;;;;;4974723;28;20206;-63
2023/01/27 11:31:51;;;;;;;4.55;4.15;;;16.00;40.00;;;;;;4975797;28;20179;-63
2023/01/27 11:34:21;;;;;;;4.75;4.07;;;16.00;39.60;;;;;;4975316;28;20214;-63
2023/01/27 11:36:49;;;;;;;4.35;3.95;;;15.90;39.70;;;;;;4976054;28;20210;-62
2023/01/27 11:39:17;;;;;;;5.10;4.00;;;16.00;39.60;;;;;;4974495;28;20201;-62
2023/01/27 11:41:46;;;;;;;4.60;4.20;;;16.00;39.70;;;;;;4975684;28;20190;-62
2023/01/27 11:44:17;;;;;;;4.22;3.83;;;16.00;39.60;;;;;;4974291;28;20245;-62
2023/01/27 11:46:44;;;;;;;4.38;3.97;;;16.00;39.60;;;;;;4975703;28;20261;-62
2023/01/27 11:49:13;;;;;;;4.85;4.10;;;16.00;39.20;;;;;;4975527;28;20190;-62
2023/01/27 11:51:40;;;;;;;4.63;4.22;;;16.00;39.50;;;;;;4974146;28;20202;-63
2023/01/27 11:54:13;;;;;;;4.75;4.35;;;16.00;39.40;;;;;;4975426;28;20234;-63
2023/01/27 11:56:40;;;;;;;4.30;3.90;;;16.00;39.50;;;;;;4974229;28;20273;-62
2023/01/27 11:59:09;;;;;;;3.97;3.63;;;16.00;39.00;;;;;;4975286;28;20190;-63
2023/01/27 12:01:45;;;;;;;4.68;4.18;;;16.10;39.20;;;;;;4974302;28;20206;-63
2023/01/27 12:04:18;;;;;;;3.78;3.47;;;16.00;39.50;;;;;;4975731;28;20264;-63
2023/01/27 12:06:47;;;;;;;4.10;3.70;;;16.10;39.30;;;;;;4974311;28;20253;-63
2023/01/27 12:09:30;;;;;;;4.75;3.97;;;16.10;39.30;;;;;;4975460;28;20198;-63
2023/01/27 12:12:20;;;;;;;4.47;4.07;;;16.10;39.20;;;;;;4975598;28;20189;-63
2023/01/27 12:14:48;;;;;;;3.75;3.38;;;16.10;39.30;;;;;;4974297;28;20214;-63
2023/01/27 12:17:19;;;;;;;4.53;4.00;;;16.10;39.40;;;;;;4974750;28;20214;-62
2023/01/27 12:19:47;;;;;;;4.03;3.63;;;16.10;39.20;;;;;;4975500;28;20206;-63
2023/01/27 12:22:17;;;;;;;4.07;3.67;;;16.10;39.20;;;;;;4973983;28;20202;-63
2023/01/27 12:24:47;;;;;;;4.43;4.03;;;16.10;39.30;;;;;;4973905;28;20214;-63
2023/01/27 12:27:20;;;;;;;4.47;4.03;;;16.10;39.20;;;;;;4975210;28;20193;-63
2023/01/27 12:29:50;;;;;;;4.93;4.15;;;16.10;39.40;;;;;;4974980;28;20199;-63
2023/01/27 12:32:20;;;;;;;4.72;4.22;;;16.10;39.10;;;;;;4974904;28;20194;-62
2023/01/27 12:34:50;;;;;;;4.07;3.67;;;16.10;39.10;;;;;;4973612;28;20245;-63
2023/01/27 12:37:22;;;;;;;4.03;3.63;;;16.10;39.10;;;;;;4973787;28;20210;-63
2023/01/27 12:39:51;;;;;;;4.35;3.95;;;16.10;39.20;;;;;;4973751;28;20202;-63
2023/01/27 12:42:39;;;;;;;4.45;4.05;;;16.10;39.10;;;;;;4974869;28;20186;-62
2023/01/27 12:45:26;;;;;;;4.35;3.90;;;16.10;39.40;;;;;;4972887;28;20202;-63
2023/01/27 12:48:01;;;;;;;4.10;3.70;;;16.00;39.50;;;;;;4974947;28;20178;-63
2023/01/27 12:50:30;;;;;;;4.55;4.07;;;15.90;39.50;;;;;;4973757;28;20194;-63
2023/01/27 12:53:11;;;;;;;5.05;4.18;;;16.00;39.60;;;;;;4974913;28;20699;-63
2023/01/27 12:55:40;;;;;;;4.47;4.07;;;15.90;39.80;;;;;;4974928;28;20261;-63
2023/01/27 12:58:37;;;;;;;6.28;4.30;;;15.90;39.80;;;;;;4974840;28;20750;-63
2023/01/27 13:01:06;;;;;;;6.05;4.20;;;15.90;40.00;;;;;;4974865;28;20185;-63
2023/01/27 13:03:38;;;;;;;5.43;4.00;;;15.90;40.00;;;;;;4974654;28;20293;-63
2023/01/27 13:06:08;;;;;;;4.75;3.97;;;15.90;39.70;;;;;;4974881;28;20198;-63
2023/01/27 13:08:36;;;;;;;4.95;4.32;;;15.90;39.50;;;;;;4973366;28;20240;-62
2023/01/27 13:11:03;;;;;;;5.07;4.57;;;16.00;39.60;;;;;;4974507;28;20205;-64
2023/01/27 13:13:30;;;;;;;5.05;4.50;;;16.00;39.50;;;;;;4974517;28;20218;-63
2023/01/27 13:16:00;;;;;;;5.25;4.50;;;16.00;39.60;;;;;;4974555;28;20565;-63
2023/01/27 13:18:29;;;;;;;5.22;4.72;;;16.00;39.40;;;;;;4973130;28;20198;-63
2023/01/27 13:20:59;;;;;;;5.72;4.75;;;16.10;39.40;;;;;;4973166;28;20193;-62
2023/01/27 13:23:28;;;;;;;5.25;4.30;;;16.00;39.50;;;;;;4974513;28;20214;-63
2023/01/27 13:25:57;;;;;;;6.03;4.90;;;16.10;39.70;;;;;;4973168;28;20198;-63
2023/01/27 13:28:27;;;;;;;4.82;4.22;;;16.10;39.70;;;;;;4974514;28;20194;-63
2023/01/27 13:30:57;;;;;;;5.28;4.45;;;16.10;39.60;;;;;;4973230;28;20268;-62
2023/01/27 13:33:29;;;;;;;4.65;4.20;;;16.10;39.70;;;;;;4973005;28;20238;-63
2023/01/27 13:35:59;;;;;;;4.88;4.38;;;16.10;39.50;;;;;;4974780;28;20178;-62
2023/01/27 13:38:30;;;;;;;4.68;4.28;;;16.10;39.20;;;;;;4974564;28;20213;-63
2023/01/27 13:40:57;;;;;;;5.25;4.75;;;16.10;39.30;;;;;;4973447;28;20194;-63